Portada
METAR-TAF:

METAR-TAF

Aeroports :

Melbourne, Austràlia

latitud: 37-40-24S, longitud: 144-50-36E, altitud: 132 m

Observació

L'informe es va fer fa 21 minuts, a les 14:00 UTC
Vent 9 kt del Nord
Temperatura 12°C
Humitat 67%
Pressió 1024 hPa
Visibilitat 10 km o més
Escasses núvols a una alçada de 2300 ft

METAR: YMML 191400Z 36009KT 9999 FEW023 12/06 Q1024

Hora: 00:21 (14:21 UTC)

Pronòstic

L'informe es va fer fa 3 hores i 7 minuts, a les 11:14 UTC
Pronòstic vàlid del 19 a les 12 UTC al 20 a les 18 UTC
Vent 6 kt del Nord
Visibilitat 10 km o més
sense núvols per sota de 1500 mi sense presència de cumulonimbus.
Evolucionant progressivament
l' 19 a les 21 UTC al 19 a les 23 UTC
Vent 13 kt del Nord
Visibilitat 10 km o més
sense núvols per sota de 1500 mi sense presència de cumulonimbus.

TAF: YMML 191114Z 1912/2018 01006KT CAVOK BECMG 1921/1923 01013KT CAVOK

Observacions i pronòstics meteorològics de més de 4000 aeroports (METAR i TAF).

Les estacions disponibles són els punts grocs i vermells al mapa.

Posi el ratolí al punt desitjat per veure el nom de l'estació.

Feu clic per veure les observacions i els pronòstics meteorològics.

Per canviar el mapa: feu clic els botons verds amb una creu de color negre per apropar; al botó verd amb un guió per allunyar la imatge; o en les fletxes verdes per a mapes adjacents.


METAR-TAF: